• Join FlightAware (Why Join?)
  • Login
  • US Flag 
Gobble Gobble! 
12:46PM EST


 

Airport Tracker/Info


-or-


 

Live Flight TrackerFlight Track Log ✈ SWA1718 ✈ 02-May-2013 ✈ KMDW - KBUF

Flight Track Log - Related Links

Times and Time Zones

All times are in EDT time to prevent confusion due to time zone crossing. See the SWA1718 flight status page for this flight to view local times or setup timezone preferences in your user account.

Time Position Orientation Groundspeed Altitude Reporting Facility
EDT Latitude Longitude Course Direction KTS MPH feet Rate Location/Type
10:30PM 41.8000 -87.7000 90° East 182 209 2,600  Level Chicago TRACON
10:31PM 41.8000 -87.6333 90° East 224 258 5,200 2,340 Climbing Chicago TRACON
10:32PM 41.8072 -87.5789 80° East 221 254 6,400 2,580 Climbing Chicago Center
10:33PM 41.7978 -87.4747 97° East 271 312 9,500 3,000 Climbing Chicago Center
10:34PM 41.7881 -87.3669 97° East 286 329 12,600 2,700 Climbing Chicago Center
10:35PM 41.7781 -87.2542 97° East 300 345 15,100 2,520 Climbing Chicago Center
10:36PM 41.7500 -86.9192 90° East  Level FlightAware Approximate
10:36PM 41.7647 -87.0964 96° East 347 399 17,800  Level Chicago Center
10:37PM 41.7611 -86.9622 92° East 360 414 20,200 2,040 Climbing Chicago Center
10:38PM 41.7636 -86.8211 89° East 374 430 22,100 1,800 Climbing Chicago Center
10:39PM 41.7653 -86.6656 89° East 396 456 23,900 1,620 Climbing Chicago Center
10:40PM 41.7650 -86.5100 90° East 413 475 25,500 1,620 Climbing Chicago Center
10:41PM 41.7672 -86.3511 89° East 424 488 27,300 1,500 Climbing Chicago Center
10:42PM 41.7900 -86.1889 79° East 439 505 28,600 1,380 Climbing Chicago Center
10:43PM 41.8189 -86.0236 77° East 451 519 30,200 1,560 Climbing Chicago Center
10:44PM 41.8472 -85.8597 77° East 450 518 31,900 1,560 Climbing Chicago Center
10:45PM 41.8747 -85.6950 77° East 450 518 33,400 1,380 Climbing Chicago Center
10:46PM 41.8961 -85.5308 80° East 445 512 34,800 720 Climbing Chicago Center
10:47PM 41.9219 -85.3336 80° East 446 513 35,000 60 Climbing Cleveland Center
10:48PM 41.9411 -85.1703 81° East 441 507 35,000  Level Cleveland Center
10:49PM 41.9622 -85.0069 80° East 441 507 35,000  Level Cleveland Center
10:50PM 41.9808 -84.8433 81° East 441 507 35,000  Level Cleveland Center
10:51PM 41.9964 -84.7019 82° East 441 507 35,000  Level Cleveland Center
10:52PM 42.0169 -84.5383 80° East 441 507 35,000  Level Cleveland Center
10:53PM 42.0328 -84.3769 82° East 441 507 35,000  Level Cleveland Center
10:54PM 42.0489 -84.1989 83° East 436 502 35,000  Level Cleveland Center
10:55PM 42.0664 -84.0406 81° East 436 502 35,000  Level Cleveland Center
10:56PM 42.0836 -83.8792 82° East 436 502 35,000  Level Cleveland Center
10:57PM 42.0981 -83.7342 82° East 436 502 35,000  Level Cleveland Center
10:58PM 42.1147 -83.5756 82° East 431 496 35,000 -300 Level Cleveland Center
10:59PM 42.1336 -83.4139 81° East 437 503 34,500 -720 Descending Cleveland Center
11:00PM 42.1519 -83.2494 81° East 437 503 33,600 -900 Descending Cleveland Center
11:01PM 42.1661 -83.0819 83° East 437 503 32,700 -960 Descending Cleveland Center
11:02PM 42.1842 -82.9203 81° East 442 509 31,700 -900 Descending Cleveland Center
11:03PM 42.2000 -82.7525 83° East 442 509 31,000 -600 Descending Cleveland Center
11:04PM 42.2175 -82.5878 82° East 442 509 30,500 -720 Descending Cleveland Center
11:05PM 42.2331 -82.4172 83° East 442 509 29,600 -960 Descending Cleveland Center
11:06PM 42.2481 -82.2522 83° East 442 509 28,600 -1,140 Descending Cleveland Center
11:07PM 42.2672 -82.0731 82° East 442 509 27,400 -840 Descending Cleveland Center
11:08PM 42.2794 -81.9106 84° East 442 509 27,000 -240 Descending Cleveland Center
11:09PM 42.2958 -81.7508 82° East 432 497 27,000  Level Cleveland Center
11:10PM 42.3075 -81.6108 84° East 426 490 27,000  Level Cleveland Center
11:11PM 42.3236 -81.4536 82° East 419 482 27,000  Level Cleveland Center
11:12PM 42.3350 -81.3022 84° East 419 482 27,000  Level Cleveland Center
11:13PM 42.3483 -81.1478 83° East 419 482 27,000  Level Cleveland Center
11:14PM 42.3614 -80.9906 84° East 414 476 27,000  Level Cleveland Center
11:15PM 42.3933 -80.8250 75° East 414 476 27,000  Level Cleveland Center
11:16PM 42.4311 -80.6731 71° East 414 476 27,000  Level Cleveland Center
11:17PM 42.4686 -80.5214 71° East 422 486 27,000  Level Cleveland Center
11:18PM 42.5058 -80.3636 72° East 422 486 27,000 -120 Level Cleveland Center
11:19PM 42.5472 -80.2139 69° East 427 491 26,800 -1,200 Descending Cleveland Center
11:20PM 42.5819 -80.0586 73° East 427 491 24,700 -2,820 Descending Cleveland Center
11:21PM 42.6228 -79.9061 70° East 427 491 21,300 -3,300 Descending Cleveland Center
11:22PM 42.6572 -79.7531 73° East 427 491 18,100 -2,820 Descending Cleveland Center
11:23PM 42.6936 -79.6086 71° East 422 486 15,700 -2,640 Descending Cleveland Center
11:24PM 42.7236 -79.4697 74° East 397 457 12,900 -2,520 Descending Cleveland Center
11:25PM 42.7517 -79.3475 73° East 365 420 10,700 -1,800 Descending Cleveland Center
11:26PM 42.7775 -79.2453 71° East 306 352 9,400 -1,800 Descending Cleveland Center
11:27PM 42.7994 -79.1458 73° East 269 310 7,100 -2,160 Descending Cleveland Center
11:28PM 42.8192 -79.0606 72° East 264 304 5,100 -1,740 Descending Cleveland Center
11:29PM 42.8408 -78.9636 73° East 250 288 3,700 -1,320 Descending Cleveland Center
11:30PM 42.8583 -78.8922 71° East 210 242 2,500 -720 Descending Cleveland Center
11:31PM 42.8742 -78.8267 72° East 181 208 2,300 -480 Descending Cleveland Center
11:32PM 42.9028 -78.7833 48° Northeast 169 194 1,600 -720 Descending Cleveland Center
11:34PM 42.9333 -78.7167 48° Northeast  Level FlightAware Approximate
11:41PM 42.9404 -78.7306 48° Northeast  Level Estimated